Airfield :
LOGIN :

Register | Disclaimer

   EN    FR    IT 

 










Legend :    VFR   Marginal VFR   IFR   Intensive IFR   Very Intensive IFR
Visi :
Ceiling :
>= 8 km
>= 3000ft
5 to 8 km
1000 to 3000 ft
1500m to 5 km
500 to 1000 ft
800 to 1500m
200 to 500 ft
< 800m
< 200 ft
Symbols :   Thunderstorms  Fog  Heavy snow  Heavy precipitations  Wind > 20 kt
SIGMETs :     Misc.  Thunderstorms  Icing  Turbulence  Mountain Waves  Volcanic Ashes







- Airport Elevation : 1043 ft
- IATA code : SLD


LZSL - Sliac

CURRENT METAR :
  • 212130Z VRB02KT 9999 SCT060TCU 21/16 Q1010

EXPIRED METARs :
  • 212100Z 17004KT 9999 FEW060 21/16 Q1010
  • 212030Z 34004KT CAVOK 21/15 Q1010
  • 212000Z 00000KT CAVOK 22/16 Q1010
  • 211930Z 00000KT 9999 FEW062 23/15 Q1010
  • 211900Z 23003KT 9999 FEW060 25/15 Q1010
  • 211830Z 25006KT CAVOK 27/14 Q1010

TAF TAF LZSL
Valid from the 21 at 21:00 until the 22 at 06:00 UTC


212000Z 2121/2206 21010KT 9999 SCT050 BKN080
TEMPO 2121/2123 34017G27KT 5000 TSRA FEW017 SCT035CB BKN040
BECMG 2123/2201 34014KT
TEMPO 2123/2203 SHRA SCT030 BKN050
BECMG 2204/2206 35008KT
No reported NOTAMs for that airfield.



MET'MAP, your aeronautical weather chart ! - Copyright ORBIFLY December 2007 - Disclaimer

ORBIFLY MET'MAP TEAM :

Programming & Development : Alexandra Zaïnal
Concept & Development : Baudouin d'Aumeries
Co-Development & Prog : Marc-Olivier Méhu
Technical & hardware support : Manuel Goepfert

Contact : metmap@orbifly.com




SOURCES & CREDITS :

   NOAA